sensor_id;sensor_type;location;lat;lon;timestamp;P1;durP1;ratioP1;P2;durP2;ratioP2
10467;SDS011;5281;48.878;9.394;2023-10-09T00:00:12;9.73;;;4.47;;
10467;SDS011;5281;48.878;9.394;2023-10-09T00:03:09;7.53;;;4.00;;
10467;SDS011;5281;48.878;9.394;2023-10-09T00:05:37;6.63;;;4.20;;
10467;SDS011;5281;48.878;9.394;2023-10-09T00:08:11;8.83;;;4.33;;
10467;SDS011;5281;48.878;9.394;2023-10-09T00:10:41;10.13;;;4.30;;
10467;SDS011;5281;48.878;9.394;2023-10-09T00:13:14;12.33;;;4.20;;
10467;SDS011;5281;48.878;9.394;2023-10-09T00:15:42;8.23;;;4.30;;
10467;SDS011;5281;48.878;9.394;2023-10-09T00:18:12;9.50;;;4.63;;
10467;SDS011;5281;48.878;9.394;2023-10-09T00:20:39;9.40;;;4.03;;
10467;SDS011;5281;48.878;9.394;2023-10-09T00:23:08;8.90;;;4.67;;
10467;SDS011;5281;48.878;9.394;2023-10-09T00:25:39;7.67;;;3.93;;
10467;SDS011;5281;48.878;9.394;2023-10-09T00:28:12;8.37;;;4.37;;
10467;SDS011;5281;48.878;9.394;2023-10-09T00:30:40;10.67;;;4.60;;
10467;SDS011;5281;48.878;9.394;2023-10-09T00:33:07;8.27;;;4.43;;
10467;SDS011;5281;48.878;9.394;2023-10-09T00:35:37;7.13;;;4.17;;
10467;SDS011;5281;48.878;9.394;2023-10-09T00:38:11;7.33;;;4.27;;
10467;SDS011;5281;48.878;9.394;2023-10-09T00:40:49;9.37;;;4.33;;
10467;SDS011;5281;48.878;9.394;2023-10-09T00:43:22;7.97;;;4.40;;
10467;SDS011;5281;48.878;9.394;2023-10-09T00:45:53;7.93;;;4.00;;
10467;SDS011;5281;48.878;9.394;2023-10-09T00:48:20;6.70;;;4.43;;
10467;SDS011;5281;48.878;9.394;2023-10-09T00:50:57;6.67;;;3.77;;
10467;SDS011;5281;48.878;9.394;2023-10-09T00:53:25;7.60;;;4.20;;
10467;SDS011;5281;48.878;9.394;2023-10-09T00:55:58;7.47;;;4.53;;
10467;SDS011;5281;48.878;9.394;2023-10-09T00:58:36;6.37;;;3.70;;
10467;SDS011;5281;48.878;9.394;2023-10-09T01:01:05;11.40;;;4.10;;
10467;SDS011;5281;48.878;9.394;2023-10-09T01:03:40;10.87;;;4.40;;
10467;SDS011;5281;48.878;9.394;2023-10-09T01:06:10;8.50;;;3.97;;
10467;SDS011;5281;48.878;9.394;2023-10-09T01:08:46;9.33;;;4.40;;
10467;SDS011;5281;48.878;9.394;2023-10-09T01:11:21;7.87;;;4.20;;
10467;SDS011;5281;48.878;9.394;2023-10-09T01:13:54;7.80;;;4.07;;
10467;SDS011;5281;48.878;9.394;2023-10-09T01:16:36;10.63;;;3.93;;
10467;SDS011;5281;48.878;9.394;2023-10-09T01:19:04;10.20;;;4.50;;
10467;SDS011;5281;48.878;9.394;2023-10-09T01:21:39;10.77;;;4.30;;
10467;SDS011;5281;48.878;9.394;2023-10-09T01:24:07;7.67;;;4.20;;
10467;SDS011;5281;48.878;9.394;2023-10-09T01:26:34;8.90;;;4.53;;
10467;SDS011;5281;48.878;9.394;2023-10-09T01:29:09;11.60;;;4.50;;
10467;SDS011;5281;48.878;9.394;2023-10-09T01:31:41;7.60;;;4.03;;
10467;SDS011;5281;48.878;9.394;2023-10-09T01:34:12;11.67;;;4.27;;
10467;SDS011;5281;48.878;9.394;2023-10-09T01:36:39;9.10;;;3.83;;
10467;SDS011;5281;48.878;9.394;2023-10-09T01:39:08;8.80;;;4.23;;
10467;SDS011;5281;48.878;9.394;2023-10-09T01:41:35;9.47;;;4.93;;
10467;SDS011;5281;48.878;9.394;2023-10-09T01:44:11;10.17;;;4.33;;
10467;SDS011;5281;48.878;9.394;2023-10-09T01:46:41;11.03;;;4.57;;
10467;SDS011;5281;48.878;9.394;2023-10-09T01:49:10;12.87;;;4.50;;
10467;SDS011;5281;48.878;9.394;2023-10-09T01:51:42;10.13;;;4.13;;
10467;SDS011;5281;48.878;9.394;2023-10-09T01:54:10;12.83;;;4.80;;
10467;SDS011;5281;48.878;9.394;2023-10-09T01:56:52;8.93;;;3.67;;
10467;SDS011;5281;48.878;9.394;2023-10-09T01:59:21;8.83;;;4.13;;
10467;SDS011;5281;48.878;9.394;2023-10-09T02:01:48;9.83;;;4.20;;
10467;SDS011;5281;48.878;9.394;2023-10-09T02:04:15;11.47;;;4.97;;
10467;SDS011;5281;48.878;9.394;2023-10-09T02:06:44;8.93;;;4.20;;
10467;SDS011;5281;48.878;9.394;2023-10-09T02:09:12;7.83;;;3.90;;
10467;SDS011;5281;48.878;9.394;2023-10-09T02:11:51;10.63;;;4.37;;
10467;SDS011;5281;48.878;9.394;2023-10-09T02:14:17;11.30;;;4.20;;
10467;SDS011;5281;48.878;9.394;2023-10-09T02:16:49;7.60;;;4.33;;
10467;SDS011;5281;48.878;9.394;2023-10-09T02:19:33;8.90;;;4.37;;
10467;SDS011;5281;48.878;9.394;2023-10-09T02:22:00;9.33;;;4.33;;
10467;SDS011;5281;48.878;9.394;2023-10-09T02:24:38;9.40;;;4.07;;
10467;SDS011;5281;48.878;9.394;2023-10-09T02:27:15;13.00;;;4.37;;
10467;SDS011;5281;48.878;9.394;2023-10-09T02:29:45;8.87;;;4.53;;
10467;SDS011;5281;48.878;9.394;2023-10-09T02:32:12;8.03;;;4.33;;
10467;SDS011;5281;48.878;9.394;2023-10-09T02:34:41;13.33;;;4.77;;
10467;SDS011;5281;48.878;9.394;2023-10-09T02:37:11;6.20;;;4.03;;
10467;SDS011;5281;48.878;9.394;2023-10-09T02:39:40;10.80;;;4.43;;
10467;SDS011;5281;48.878;9.394;2023-10-09T02:42:13;10.40;;;4.83;;
10467;SDS011;5281;48.878;9.394;2023-10-09T02:44:48;11.30;;;4.80;;
10467;SDS011;5281;48.878;9.394;2023-10-09T02:47:16;8.83;;;5.07;;
10467;SDS011;5281;48.878;9.394;2023-10-09T02:49:45;11.80;;;5.00;;
10467;SDS011;5281;48.878;9.394;2023-10-09T02:52:15;8.40;;;4.43;;
10467;SDS011;5281;48.878;9.394;2023-10-09T02:54:46;10.90;;;5.10;;
10467;SDS011;5281;48.878;9.394;2023-10-09T02:57:13;13.57;;;5.33;;
10467;SDS011;5281;48.878;9.394;2023-10-09T02:59:47;8.13;;;4.17;;
10467;SDS011;5281;48.878;9.394;2023-10-09T03:02:16;10.00;;;4.70;;
10467;SDS011;5281;48.878;9.394;2023-10-09T03:04:43;10.53;;;4.60;;
10467;SDS011;5281;48.878;9.394;2023-10-09T03:07:10;7.67;;;4.40;;
10467;SDS011;5281;48.878;9.394;2023-10-09T03:09:38;12.53;;;4.30;;
10467;SDS011;5281;48.878;9.394;2023-10-09T03:12:07;9.30;;;4.27;;
10467;SDS011;5281;48.878;9.394;2023-10-09T03:14:37;9.67;;;4.00;;
10467;SDS011;5281;48.878;9.394;2023-10-09T03:17:07;9.43;;;4.20;;
10467;SDS011;5281;48.878;9.394;2023-10-09T03:19:36;11.03;;;4.60;;
10467;SDS011;5281;48.878;9.394;2023-10-09T03:22:03;10.40;;;4.27;;
10467;SDS011;5281;48.878;9.394;2023-10-09T03:24:34;12.30;;;4.43;;
10467;SDS011;5281;48.878;9.394;2023-10-09T03:27:01;9.33;;;4.30;;
10467;SDS011;5281;48.878;9.394;2023-10-09T03:29:29;10.07;;;4.57;;
10467;SDS011;5281;48.878;9.394;2023-10-09T03:31:56;12.17;;;4.57;;
10467;SDS011;5281;48.878;9.394;2023-10-09T03:34:25;9.80;;;4.83;;
10467;SDS011;5281;48.878;9.394;2023-10-09T03:36:53;12.80;;;5.23;;
10467;SDS011;5281;48.878;9.394;2023-10-09T03:39:29;12.03;;;4.80;;
10467;SDS011;5281;48.878;9.394;2023-10-09T03:42:06;11.13;;;4.60;;
10467;SDS011;5281;48.878;9.394;2023-10-09T03:44:38;12.50;;;6.10;;
10467;SDS011;5281;48.878;9.394;2023-10-09T03:47:08;15.87;;;8.47;;
10467;SDS011;5281;48.878;9.394;2023-10-09T03:49:36;8.77;;;4.60;;
10467;SDS011;5281;48.878;9.394;2023-10-09T03:52:04;16.13;;;8.53;;
10467;SDS011;5281;48.878;9.394;2023-10-09T03:54:33;11.87;;;6.07;;
10467;SDS011;5281;48.878;9.394;2023-10-09T03:57:00;9.83;;;5.73;;
10467;SDS011;5281;48.878;9.394;2023-10-09T03:59:27;15.47;;;5.23;;
10467;SDS011;5281;48.878;9.394;2023-10-09T04:01:58;10.23;;;5.17;;
10467;SDS011;5281;48.878;9.394;2023-10-09T04:04:25;15.83;;;5.50;;
10467;SDS011;5281;48.878;9.394;2023-10-09T04:06:53;16.33;;;9.97;;
10467;SDS011;5281;48.878;9.394;2023-10-09T04:09:20;23.87;;;14.97;;
10467;SDS011;5281;48.878;9.394;2023-10-09T04:12:04;10.17;;;5.90;;
10467;SDS011;5281;48.878;9.394;2023-10-09T04:14:49;13.93;;;7.17;;
10467;SDS011;5281;48.878;9.394;2023-10-09T04:17:21;11.10;;;6.20;;
10467;SDS011;5281;48.878;9.394;2023-10-09T04:20:00;17.20;;;10.03;;
10467;SDS011;5281;48.878;9.394;2023-10-09T04:22:44;10.20;;;5.60;;
10467;SDS011;5281;48.878;9.394;2023-10-09T04:25:16;16.10;;;8.90;;
10467;SDS011;5281;48.878;9.394;2023-10-09T04:27:50;14.73;;;7.53;;
10467;SDS011;5281;48.878;9.394;2023-10-09T04:30:18;12.60;;;5.80;;
10467;SDS011;5281;48.878;9.394;2023-10-09T04:32:46;11.70;;;5.30;;
10467;SDS011;5281;48.878;9.394;2023-10-09T04:35:14;11.30;;;4.87;;
10467;SDS011;5281;48.878;9.394;2023-10-09T04:37:49;13.13;;;4.63;;
10467;SDS011;5281;48.878;9.394;2023-10-09T04:40:28;7.80;;;4.30;;
10467;SDS011;5281;48.878;9.394;2023-10-09T04:43:13;10.73;;;4.70;;
10467;SDS011;5281;48.878;9.394;2023-10-09T04:45:45;15.00;;;6.73;;
10467;SDS011;5281;48.878;9.394;2023-10-09T04:48:33;14.17;;;4.97;;
10467;SDS011;5281;48.878;9.394;2023-10-09T04:51:03;14.00;;;4.83;;
10467;SDS011;5281;48.878;9.394;2023-10-09T04:53:59;10.47;;;4.97;;
10467;SDS011;5281;48.878;9.394;2023-10-09T04:56:37;12.57;;;4.40;;
10467;SDS011;5281;48.878;9.394;2023-10-09T04:59:16;15.67;;;4.90;;
10467;SDS011;5281;48.878;9.394;2023-10-09T05:01:44;11.70;;;4.90;;
10467;SDS011;5281;48.878;9.394;2023-10-09T05:04:23;13.10;;;4.87;;
10467;SDS011;5281;48.878;9.394;2023-10-09T05:07:04;11.93;;;4.53;;
10467;SDS011;5281;48.878;9.394;2023-10-09T05:09:48;12.13;;;4.43;;
10467;SDS011;5281;48.878;9.394;2023-10-09T05:12:39;13.87;;;5.13;;
10467;SDS011;5281;48.878;9.394;2023-10-09T05:15:12;12.10;;;5.47;;
10467;SDS011;5281;48.878;9.394;2023-10-09T05:17:39;14.87;;;4.70;;
10467;SDS011;5281;48.878;9.394;2023-10-09T05:20:09;13.20;;;5.97;;
10467;SDS011;5281;48.878;9.394;2023-10-09T05:22:54;17.87;;;6.73;;
10467;SDS011;5281;48.878;9.394;2023-10-09T05:25:24;13.03;;;6.13;;
10467;SDS011;5281;48.878;9.394;2023-10-09T05:28:20;12.23;;;5.30;;
10467;SDS011;5281;48.878;9.394;2023-10-09T05:31:13;10.07;;;4.80;;
10467;SDS011;5281;48.878;9.394;2023-10-09T05:34:01;13.43;;;4.40;;
10467;SDS011;5281;48.878;9.394;2023-10-09T05:36:29;11.17;;;4.40;;
10467;SDS011;5281;48.878;9.394;2023-10-09T05:39:00;20.23;;;6.70;;
10467;SDS011;5281;48.878;9.394;2023-10-09T05:41:41;17.87;;;6.00;;
10467;SDS011;5281;48.878;9.394;2023-10-09T05:44:17;14.57;;;4.20;;
10467;SDS011;5281;48.878;9.394;2023-10-09T05:47:02;9.40;;;4.50;;
10467;SDS011;5281;48.878;9.394;2023-10-09T05:49:47;13.20;;;5.27;;
10467;SDS011;5281;48.878;9.394;2023-10-09T05:52:21;16.30;;;5.00;;
10467;SDS011;5281;48.878;9.394;2023-10-09T05:55:14;9.87;;;4.80;;
10467;SDS011;5281;48.878;9.394;2023-10-09T05:58:07;19.33;;;5.33;;
10467;SDS011;5281;48.878;9.394;2023-10-09T06:00:51;8.63;;;4.03;;
10467;SDS011;5281;48.878;9.394;2023-10-09T06:03:35;9.10;;;4.40;;
10467;SDS011;5281;48.878;9.394;2023-10-09T06:06:14;16.37;;;4.70;;
10467;SDS011;5281;48.878;9.394;2023-10-09T06:08:59;14.47;;;4.43;;
10467;SDS011;5281;48.878;9.394;2023-10-09T06:11:44;13.60;;;4.93;;
10467;SDS011;5281;48.878;9.394;2023-10-09T06:14:15;15.43;;;4.30;;
10467;SDS011;5281;48.878;9.394;2023-10-09T06:16:50;18.87;;;4.97;;
10467;SDS011;5281;48.878;9.394;2023-10-09T06:19:26;13.47;;;4.27;;
10467;SDS011;5281;48.878;9.394;2023-10-09T06:21:52;18.10;;;5.43;;
10467;SDS011;5281;48.878;9.394;2023-10-09T06:24:38;16.70;;;4.97;;
10467;SDS011;5281;48.878;9.394;2023-10-09T06:27:07;15.20;;;4.97;;
10467;SDS011;5281;48.878;9.394;2023-10-09T06:29:39;18.93;;;5.40;;
10467;SDS011;5281;48.878;9.394;2023-10-09T06:32:16;10.90;;;4.27;;
10467;SDS011;5281;48.878;9.394;2023-10-09T06:35:02;16.58;;;4.72;;
10467;SDS011;5281;48.878;9.394;2023-10-09T06:37:41;13.37;;;5.40;;
10467;SDS011;5281;48.878;9.394;2023-10-09T06:40:24;15.80;;;5.10;;
10467;SDS011;5281;48.878;9.394;2023-10-09T06:43:08;17.77;;;5.13;;
10467;SDS011;5281;48.878;9.394;2023-10-09T06:45:40;15.60;;;5.57;;
10467;SDS011;5281;48.878;9.394;2023-10-09T06:48:10;19.07;;;6.60;;
10467;SDS011;5281;48.878;9.394;2023-10-09T06:50:51;13.68;;;4.70;;
10467;SDS011;5281;48.878;9.394;2023-10-09T06:53:29;17.02;;;5.65;;
10467;SDS011;5281;48.878;9.394;2023-10-09T06:56:11;14.85;;;4.18;;
10467;SDS011;5281;48.878;9.394;2023-10-09T06:58:49;19.55;;;5.93;;
10467;SDS011;5281;48.878;9.394;2023-10-09T07:01:19;12.50;;;4.85;;
10467;SDS011;5281;48.878;9.394;2023-10-09T07:03:53;14.85;;;4.50;;
10467;SDS011;5281;48.878;9.394;2023-10-09T07:06:25;11.37;;;4.50;;
10467;SDS011;5281;48.878;9.394;2023-10-09T07:09:13;14.55;;;5.65;;
10467;SDS011;5281;48.878;9.394;2023-10-09T07:11:45;11.70;;;4.00;;
10467;SDS011;5281;48.878;9.394;2023-10-09T07:14:34;15.30;;;4.72;;
10467;SDS011;5281;48.878;9.394;2023-10-09T07:17:19;18.50;;;5.35;;
10467;SDS011;5281;48.878;9.394;2023-10-09T07:19:51;13.18;;;4.63;;
10467;SDS011;5281;48.878;9.394;2023-10-09T07:22:38;15.80;;;4.68;;
10467;SDS011;5281;48.878;9.394;2023-10-09T07:25:19;11.60;;;4.38;;
10467;SDS011;5281;48.878;9.394;2023-10-09T07:28:09;14.73;;;5.55;;
10467;SDS011;5281;48.878;9.394;2023-10-09T07:31:01;10.50;;;5.05;;
10467;SDS011;5281;48.878;9.394;2023-10-09T07:33:28;11.93;;;4.40;;
10467;SDS011;5281;48.878;9.394;2023-10-09T07:36:17;13.60;;;4.85;;
10467;SDS011;5281;48.878;9.394;2023-10-09T07:38:54;15.43;;;4.82;;
10467;SDS011;5281;48.878;9.394;2023-10-09T07:41:29;18.88;;;5.60;;
10467;SDS011;5281;48.878;9.394;2023-10-09T07:44:04;20.73;;;8.63;;
10467;SDS011;5281;48.878;9.394;2023-10-09T07:46:59;19.05;;;5.93;;
10467;SDS011;5281;48.878;9.394;2023-10-09T07:49:39;13.48;;;4.75;;
10467;SDS011;5281;48.878;9.394;2023-10-09T07:52:07;17.33;;;5.88;;
10467;SDS011;5281;48.878;9.394;2023-10-09T07:54:34;19.67;;;5.30;;
10467;SDS011;5281;48.878;9.394;2023-10-09T07:57:01;24.60;;;5.28;;
10467;SDS011;5281;48.878;9.394;2023-10-09T07:59:42;17.10;;;5.28;;
10467;SDS011;5281;48.878;9.394;2023-10-09T08:02:19;14.52;;;5.28;;
10467;SDS011;5281;48.878;9.394;2023-10-09T08:04:56;13.05;;;4.82;;
10467;SDS011;5281;48.878;9.394;2023-10-09T08:07:28;11.90;;;4.45;;
10467;SDS011;5281;48.878;9.394;2023-10-09T08:10:00;16.75;;;5.15;;
10467;SDS011;5281;48.878;9.394;2023-10-09T08:12:45;16.55;;;4.95;;
10467;SDS011;5281;48.878;9.394;2023-10-09T08:15:25;14.82;;;4.93;;
10467;SDS011;5281;48.878;9.394;2023-10-09T08:17:59;18.45;;;4.70;;
10467;SDS011;5281;48.878;9.394;2023-10-09T08:20:35;12.63;;;4.45;;
10467;SDS011;5281;48.878;9.394;2023-10-09T08:23:30;17.45;;;4.80;;
10467;SDS011;5281;48.878;9.394;2023-10-09T08:26:11;12.20;;;4.63;;
10467;SDS011;5281;48.878;9.394;2023-10-09T08:28:38;18.23;;;5.40;;
10467;SDS011;5281;48.878;9.394;2023-10-09T08:31:09;15.50;;;5.18;;
10467;SDS011;5281;48.878;9.394;2023-10-09T08:33:59;11.43;;;4.60;;
10467;SDS011;5281;48.878;9.394;2023-10-09T08:36:26;16.00;;;4.60;;
10467;SDS011;5281;48.878;9.394;2023-10-09T08:39:01;13.18;;;4.85;;
10467;SDS011;5281;48.878;9.394;2023-10-09T08:41:40;14.07;;;4.63;;
10467;SDS011;5281;48.878;9.394;2023-10-09T08:44:07;12.63;;;4.35;;
10467;SDS011;5281;48.878;9.394;2023-10-09T08:46:38;12.07;;;5.18;;
10467;SDS011;5281;48.878;9.394;2023-10-09T08:49:07;14.23;;;5.13;;
10467;SDS011;5281;48.878;9.394;2023-10-09T08:51:35;13.10;;;4.47;;
10467;SDS011;5281;48.878;9.394;2023-10-09T08:54:03;14.48;;;4.97;;
10467;SDS011;5281;48.878;9.394;2023-10-09T08:56:36;11.60;;;4.47;;
10467;SDS011;5281;48.878;9.394;2023-10-09T08:59:04;13.98;;;4.95;;
10467;SDS011;5281;48.878;9.394;2023-10-09T09:01:31;17.15;;;4.25;;
10467;SDS011;5281;48.878;9.394;2023-10-09T09:04:00;15.68;;;4.88;;
10467;SDS011;5281;48.878;9.394;2023-10-09T09:06:35;19.10;;;4.88;;
10467;SDS011;5281;48.878;9.394;2023-10-09T09:09:09;15.98;;;5.55;;
10467;SDS011;5281;48.878;9.394;2023-10-09T09:11:40;18.42;;;5.50;;
10467;SDS011;5281;48.878;9.394;2023-10-09T09:14:13;17.65;;;5.60;;
10467;SDS011;5281;48.878;9.394;2023-10-09T09:16:44;21.40;;;5.35;;
10467;SDS011;5281;48.878;9.394;2023-10-09T09:19:14;15.02;;;5.20;;
10467;SDS011;5281;48.878;9.394;2023-10-09T09:21:47;14.80;;;4.90;;
10467;SDS011;5281;48.878;9.394;2023-10-09T09:24:19;17.95;;;5.47;;
10467;SDS011;5281;48.878;9.394;2023-10-09T09:26:56;10.88;;;4.80;;
10467;SDS011;5281;48.878;9.394;2023-10-09T09:29:38;18.40;;;5.30;;
10467;SDS011;5281;48.878;9.394;2023-10-09T09:32:05;12.82;;;5.03;;
10467;SDS011;5281;48.878;9.394;2023-10-09T09:34:47;13.50;;;4.38;;
10467;SDS011;5281;48.878;9.394;2023-10-09T09:37:19;16.45;;;4.93;;
10467;SDS011;5281;48.878;9.394;2023-10-09T09:39:47;18.65;;;5.28;;
10467;SDS011;5281;48.878;9.394;2023-10-09T09:42:15;14.23;;;4.45;;
10467;SDS011;5281;48.878;9.394;2023-10-09T09:44:49;19.13;;;5.05;;
10467;SDS011;5281;48.878;9.394;2023-10-09T09:47:17;18.75;;;5.13;;
10467;SDS011;5281;48.878;9.394;2023-10-09T09:49:53;21.88;;;5.15;;
10467;SDS011;5281;48.878;9.394;2023-10-09T09:52:24;16.02;;;4.78;;
10467;SDS011;5281;48.878;9.394;2023-10-09T09:54:52;18.92;;;6.07;;
10467;SDS011;5281;48.878;9.394;2023-10-09T09:57:20;21.35;;;5.38;;
10467;SDS011;5281;48.878;9.394;2023-10-09T09:59:52;18.80;;;5.43;;
10467;SDS011;5281;48.878;9.394;2023-10-09T10:02:21;16.17;;;4.50;;
10467;SDS011;5281;48.878;9.394;2023-10-09T10:04:55;15.93;;;5.47;;
10467;SDS011;5281;48.878;9.394;2023-10-09T10:07:24;18.52;;;4.82;;
10467;SDS011;5281;48.878;9.394;2023-10-09T10:09:54;14.38;;;4.07;;
10467;SDS011;5281;48.878;9.394;2023-10-09T10:12:48;15.98;;;5.07;;
10467;SDS011;5281;48.878;9.394;2023-10-09T10:18:22;14.57;;;4.90;;
10467;SDS011;5281;48.878;9.394;2023-10-09T10:23:41;14.25;;;4.75;;
10467;SDS011;5281;48.878;9.394;2023-10-09T10:26:18;20.77;;;4.50;;
10467;SDS011;5281;48.878;9.394;2023-10-09T10:29:13;17.55;;;5.00;;
10467;SDS011;5281;48.878;9.394;2023-10-09T10:31:54;13.32;;;4.53;;
10467;SDS011;5281;48.878;9.394;2023-10-09T10:34:23;18.63;;;4.35;;
10467;SDS011;5281;48.878;9.394;2023-10-09T10:36:52;16.20;;;4.18;;
10467;SDS011;5281;48.878;9.394;2023-10-09T10:39:24;20.60;;;4.72;;
10467;SDS011;5281;48.878;9.394;2023-10-09T10:42:18;17.85;;;4.53;;
10467;SDS011;5281;48.878;9.394;2023-10-09T10:45:17;26.85;;;4.90;;
10467;SDS011;5281;48.878;9.394;2023-10-09T10:47:59;18.23;;;5.00;;
10467;SDS011;5281;48.878;9.394;2023-10-09T10:50:31;14.77;;;5.10;;
10467;SDS011;5281;48.878;9.394;2023-10-09T10:53:07;18.27;;;5.15;;
10467;SDS011;5281;48.878;9.394;2023-10-09T10:55:54;20.65;;;6.65;;
10467;SDS011;5281;48.878;9.394;2023-10-09T10:58:21;25.23;;;7.60;;
10467;SDS011;5281;48.878;9.394;2023-10-09T11:01:01;20.00;;;5.32;;
10467;SDS011;5281;48.878;9.394;2023-10-09T11:03:37;18.33;;;5.00;;
10467;SDS011;5281;48.878;9.394;2023-10-09T11:06:24;15.93;;;4.88;;
10467;SDS011;5281;48.878;9.394;2023-10-09T11:09:00;14.68;;;4.55;;
10467;SDS011;5281;48.878;9.394;2023-10-09T11:11:34;21.70;;;5.10;;
10467;SDS011;5281;48.878;9.394;2023-10-09T11:14:09;16.95;;;4.95;;
10467;SDS011;5281;48.878;9.394;2023-10-09T11:16:40;20.48;;;4.85;;
10467;SDS011;5281;48.878;9.394;2023-10-09T11:19:07;18.80;;;4.68;;
10467;SDS011;5281;48.878;9.394;2023-10-09T11:21:47;22.65;;;4.75;;
10467;SDS011;5281;48.878;9.394;2023-10-09T11:24:23;24.27;;;4.55;;
10467;SDS011;5281;48.878;9.394;2023-10-09T11:26:50;21.40;;;4.80;;
10467;SDS011;5281;48.878;9.394;2023-10-09T11:29:20;20.73;;;4.80;;
10467;SDS011;5281;48.878;9.394;2023-10-09T11:32:17;22.13;;;4.25;;
10467;SDS011;5281;48.878;9.394;2023-10-09T11:34:47;13.40;;;4.28;;
10467;SDS011;5281;48.878;9.394;2023-10-09T11:37:17;21.85;;;5.15;;
10467;SDS011;5281;48.878;9.394;2023-10-09T11:40:03;16.27;;;4.63;;
10467;SDS011;5281;48.878;9.394;2023-10-09T11:42:48;19.27;;;4.43;;
10467;SDS011;5281;48.878;9.394;2023-10-09T11:45:22;17.88;;;5.95;;
10467;SDS011;5281;48.878;9.394;2023-10-09T11:47:55;25.33;;;5.60;;
10467;SDS011;5281;48.878;9.394;2023-10-09T11:50:40;21.40;;;6.15;;
10467;SDS011;5281;48.878;9.394;2023-10-09T11:53:16;19.95;;;5.78;;
10467;SDS011;5281;48.878;9.394;2023-10-09T11:55:58;15.68;;;5.93;;
10467;SDS011;5281;48.878;9.394;2023-10-09T11:58:25;19.85;;;5.45;;
10467;SDS011;5281;48.878;9.394;2023-10-09T12:00:52;23.75;;;5.50;;
10467;SDS011;5281;48.878;9.394;2023-10-09T12:03:23;17.90;;;5.28;;
10467;SDS011;5281;48.878;9.394;2023-10-09T12:05:53;20.05;;;4.35;;
10467;SDS011;5281;48.878;9.394;2023-10-09T12:08:21;21.02;;;5.20;;
10467;SDS011;5281;48.878;9.394;2023-10-09T12:10:51;20.13;;;6.15;;
10467;SDS011;5281;48.878;9.394;2023-10-09T12:13:19;24.23;;;7.97;;
10467;SDS011;5281;48.878;9.394;2023-10-09T12:15:47;22.08;;;8.82;;
10467;SDS011;5281;48.878;9.394;2023-10-09T12:18:14;24.13;;;8.30;;
10467;SDS011;5281;48.878;9.394;2023-10-09T12:20:42;23.08;;;9.02;;
10467;SDS011;5281;48.878;9.394;2023-10-09T12:23:15;21.05;;;7.55;;
10467;SDS011;5281;48.878;9.394;2023-10-09T12:25:43;23.92;;;6.32;;
10467;SDS011;5281;48.878;9.394;2023-10-09T12:28:10;25.50;;;6.13;;
10467;SDS011;5281;48.878;9.394;2023-10-09T12:30:38;22.17;;;6.00;;
10467;SDS011;5281;48.878;9.394;2023-10-09T12:33:06;24.75;;;5.93;;
10467;SDS011;5281;48.878;9.394;2023-10-09T12:35:37;24.27;;;5.40;;
10467;SDS011;5281;48.878;9.394;2023-10-09T12:38:07;22.63;;;6.13;;
10467;SDS011;5281;48.878;9.394;2023-10-09T12:40:38;19.00;;;5.85;;
10467;SDS011;5281;48.878;9.394;2023-10-09T12:43:06;24.92;;;6.03;;
10467;SDS011;5281;48.878;9.394;2023-10-09T12:45:40;12.10;;;4.32;;
10467;SDS011;5281;48.878;9.394;2023-10-09T12:48:07;15.10;;;4.30;;
10467;SDS011;5281;48.878;9.394;2023-10-09T12:50:34;16.00;;;4.32;;
10467;SDS011;5281;48.878;9.394;2023-10-09T12:53:08;15.63;;;4.47;;
10467;SDS011;5281;48.878;9.394;2023-10-09T12:55:35;26.98;;;4.75;;
10467;SDS011;5281;48.878;9.394;2023-10-09T12:58:05;19.35;;;4.75;;
10467;SDS011;5281;48.878;9.394;2023-10-09T13:00:33;15.48;;;4.90;;
10467;SDS011;5281;48.878;9.394;2023-10-09T13:03:03;17.48;;;5.18;;
10467;SDS011;5281;48.878;9.394;2023-10-09T13:05:38;21.02;;;5.75;;
10467;SDS011;5281;48.878;9.394;2023-10-09T13:08:18;14.18;;;5.10;;
10467;SDS011;5281;48.878;9.394;2023-10-09T13:10:46;17.00;;;4.70;;
10467;SDS011;5281;48.878;9.394;2023-10-09T13:13:20;18.67;;;4.70;;
10467;SDS011;5281;48.878;9.394;2023-10-09T13:15:47;19.23;;;4.65;;
10467;SDS011;5281;48.878;9.394;2023-10-09T13:18:14;17.35;;;4.80;;
10467;SDS011;5281;48.878;9.394;2023-10-09T13:20:41;15.98;;;4.15;;
10467;SDS011;5281;48.878;9.394;2023-10-09T13:23:07;18.58;;;4.28;;
10467;SDS011;5281;48.878;9.394;2023-10-09T13:25:41;13.23;;;4.22;;
10467;SDS011;5281;48.878;9.394;2023-10-09T13:28:09;12.85;;;4.88;;
10467;SDS011;5281;48.878;9.394;2023-10-09T13:30:37;14.55;;;5.20;;
10467;SDS011;5281;48.878;9.394;2023-10-09T13:33:14;14.93;;;4.88;;
10467;SDS011;5281;48.878;9.394;2023-10-09T13:35:42;10.75;;;4.22;;
10467;SDS011;5281;48.878;9.394;2023-10-09T13:38:15;12.50;;;4.35;;
10467;SDS011;5281;48.878;9.394;2023-10-09T13:40:43;10.68;;;4.68;;
10467;SDS011;5281;48.878;9.394;2023-10-09T13:43:10;13.82;;;4.72;;
10467;SDS011;5281;48.878;9.394;2023-10-09T13:45:41;9.23;;;4.68;;
10467;SDS011;5281;48.878;9.394;2023-10-09T13:48:14;10.52;;;5.07;;
10467;SDS011;5281;48.878;9.394;2023-10-09T13:50:42;14.55;;;5.78;;
10467;SDS011;5281;48.878;9.394;2023-10-09T13:53:09;11.38;;;4.90;;
10467;SDS011;5281;48.878;9.394;2023-10-09T13:55:37;12.98;;;5.43;;
10467;SDS011;5281;48.878;9.394;2023-10-09T13:58:09;11.00;;;5.05;;
10467;SDS011;5281;48.878;9.394;2023-10-09T14:00:39;13.73;;;6.53;;
10467;SDS011;5281;48.878;9.394;2023-10-09T14:03:08;14.82;;;5.25;;
10467;SDS011;5281;48.878;9.394;2023-10-09T14:05:38;10.77;;;4.75;;
10467;SDS011;5281;48.878;9.394;2023-10-09T14:08:17;14.65;;;4.90;;
10467;SDS011;5281;48.878;9.394;2023-10-09T14:10:47;9.80;;;5.07;;
10467;SDS011;5281;48.878;9.394;2023-10-09T14:13:15;17.92;;;5.72;;
10467;SDS011;5281;48.878;9.394;2023-10-09T14:15:43;13.73;;;4.75;;
10467;SDS011;5281;48.878;9.394;2023-10-09T14:18:11;14.35;;;5.25;;
10467;SDS011;5281;48.878;9.394;2023-10-09T14:20:38;15.07;;;5.07;;
10467;SDS011;5281;48.878;9.394;2023-10-09T14:23:06;12.40;;;5.75;;
10467;SDS011;5281;48.878;9.394;2023-10-09T14:25:37;16.65;;;5.80;;
10467;SDS011;5281;48.878;9.394;2023-10-09T14:28:05;18.95;;;5.55;;
10467;SDS011;5281;48.878;9.394;2023-10-09T14:30:34;13.63;;;4.85;;
10467;SDS011;5281;48.878;9.394;2023-10-09T14:33:07;18.42;;;6.55;;
10467;SDS011;5281;48.878;9.394;2023-10-09T14:35:37;13.35;;;5.72;;
10467;SDS011;5281;48.878;9.394;2023-10-09T14:38:05;10.70;;;5.30;;
10467;SDS011;5281;48.878;9.394;2023-10-09T14:40:36;9.45;;;5.18;;
10467;SDS011;5281;48.878;9.394;2023-10-09T14:43:06;11.77;;;6.05;;
10467;SDS011;5281;48.878;9.394;2023-10-09T14:45:37;14.45;;;5.72;;
10467;SDS011;5281;48.878;9.394;2023-10-09T14:48:04;13.93;;;6.05;;
10467;SDS011;5281;48.878;9.394;2023-10-09T14:50:30;16.42;;;7.18;;
10467;SDS011;5281;48.878;9.394;2023-10-09T14:53:03;18.08;;;8.88;;
10467;SDS011;5281;48.878;9.394;2023-10-09T14:55:30;19.45;;;8.57;;
10467;SDS011;5281;48.878;9.394;2023-10-09T14:57:57;15.27;;;7.30;;
10467;SDS011;5281;48.878;9.394;2023-10-09T15:00:24;16.35;;;7.18;;
10467;SDS011;5281;48.878;9.394;2023-10-09T15:02:52;14.48;;;6.82;;
10467;SDS011;5281;48.878;9.394;2023-10-09T15:05:19;11.35;;;6.53;;
10467;SDS011;5281;48.878;9.394;2023-10-09T15:07:47;16.15;;;6.20;;
10467;SDS011;5281;48.878;9.394;2023-10-09T15:10:15;12.25;;;6.40;;
10467;SDS011;5281;48.878;9.394;2023-10-09T15:12:43;14.48;;;6.00;;
10467;SDS011;5281;48.878;9.394;2023-10-09T15:15:12;16.50;;;6.50;;
10467;SDS011;5281;48.878;9.394;2023-10-09T15:17:39;14.48;;;6.53;;
10467;SDS011;5281;48.878;9.394;2023-10-09T15:20:11;13.20;;;6.55;;
10467;SDS011;5281;48.878;9.394;2023-10-09T15:22:40;17.83;;;7.68;;
10467;SDS011;5281;48.878;9.394;2023-10-09T15:25:07;17.40;;;8.23;;
10467;SDS011;5281;48.878;9.394;2023-10-09T15:27:34;15.77;;;8.15;;
10467;SDS011;5281;48.878;9.394;2023-10-09T15:30:04;16.42;;;7.25;;
10467;SDS011;5281;48.878;9.394;2023-10-09T15:32:33;11.23;;;6.20;;